sensor_id;sensor_type;location;lat;lon;timestamp;pressure;altitude;pressure_sealevel;temperature;humidity
15314;BME280;7757;52.626;4.746;2023-05-03T00:02:43;102862.47;;;18.08;49.83
15314;BME280;7757;52.626;4.746;2023-05-03T00:05:30;102870.59;;;18.08;49.87
15314;BME280;7757;52.626;4.746;2023-05-03T00:08:32;102861.63;;;18.08;49.98
15314;BME280;7757;52.626;4.746;2023-05-03T00:11:18;102869.75;;;18.08;49.75
15314;BME280;7757;52.626;4.746;2023-05-03T00:14:04;102868.28;;;18.05;50.26
15314;BME280;7757;52.626;4.746;2023-05-03T00:16:49;102862.38;;;18.02;49.86
15314;BME280;7757;52.626;4.746;2023-05-03T00:19:38;102865.09;;;18.02;49.88
15314;BME280;7757;52.626;4.746;2023-05-03T00:22:25;102871.81;;;18.06;50.11
15314;BME280;7757;52.626;4.746;2023-05-03T00:25:10;102879.09;;;18.05;49.98
15314;BME280;7757;52.626;4.746;2023-05-03T00:28:11;102875.75;;;18.03;50.34
15314;BME280;7757;52.626;4.746;2023-05-03T00:31:05;102865.19;;;17.94;49.77
15314;BME280;7757;52.626;4.746;2023-05-03T00:33:54;102864.25;;;18.01;49.87
15314;BME280;7757;52.626;4.746;2023-05-03T00:36:39;102868.84;;;18.01;49.77
15314;BME280;7757;52.626;4.746;2023-05-03T00:39:27;102869.00;;;17.99;50.26
15314;BME280;7757;52.626;4.746;2023-05-03T00:42:13;102879.66;;;18.01;50.45
15314;BME280;7757;52.626;4.746;2023-05-03T00:44:58;102879.19;;;17.97;50.00
15314;BME280;7757;52.626;4.746;2023-05-03T00:47:47;102872.09;;;17.96;49.87
15314;BME280;7757;52.626;4.746;2023-05-03T00:50:35;102879.00;;;17.99;49.52
15314;BME280;7757;52.626;4.746;2023-05-03T00:53:21;102874.63;;;17.98;50.01
15314;BME280;7757;52.626;4.746;2023-05-03T00:56:10;102875.00;;;17.95;50.32
15314;BME280;7757;52.626;4.746;2023-05-03T00:58:56;102877.69;;;17.95;49.86
15314;BME280;7757;52.626;4.746;2023-05-03T01:01:42;102869.94;;;17.92;50.43
15314;BME280;7757;52.626;4.746;2023-05-03T01:04:29;102881.22;;;17.95;50.07
15314;BME280;7757;52.626;4.746;2023-05-03T01:07:21;102866.75;;;17.88;50.34
15314;BME280;7757;52.626;4.746;2023-05-03T01:10:17;102877.22;;;17.91;50.59
15314;BME280;7757;52.626;4.746;2023-05-03T01:13:16;102874.03;;;17.88;50.06
15314;BME280;7757;52.626;4.746;2023-05-03T01:16:13;102878.06;;;17.92;49.85
15314;BME280;7757;52.626;4.746;2023-05-03T01:19:04;102873.03;;;17.89;50.11
15314;BME280;7757;52.626;4.746;2023-05-03T01:22:00;102872.81;;;17.90;50.40
15314;BME280;7757;52.626;4.746;2023-05-03T01:24:50;102862.56;;;17.86;50.23
15314;BME280;7757;52.626;4.746;2023-05-03T01:27:40;102863.41;;;17.86;50.30
15314;BME280;7757;52.626;4.746;2023-05-03T01:30:27;102856.94;;;17.87;50.30
15314;BME280;7757;52.626;4.746;2023-05-03T01:33:23;102855.94;;;17.88;50.44
15314;BME280;7757;52.626;4.746;2023-05-03T01:36:12;102836.41;;;17.78;50.41
15314;BME280;7757;52.626;4.746;2023-05-03T01:39:04;102834.00;;;17.83;50.63
15314;BME280;7757;52.626;4.746;2023-05-03T01:41:51;102841.06;;;17.84;50.62
15314;BME280;7757;52.626;4.746;2023-05-03T01:44:38;102841.06;;;17.84;50.16
15314;BME280;7757;52.626;4.746;2023-05-03T01:47:27;102839.59;;;17.81;50.18
15314;BME280;7757;52.626;4.746;2023-05-03T01:50:12;102829.59;;;17.82;50.46
15314;BME280;7757;52.626;4.746;2023-05-03T01:52:58;102816.22;;;17.80;50.78
15314;BME280;7757;52.626;4.746;2023-05-03T01:55:46;102819.16;;;17.79;50.42
15314;BME280;7757;52.626;4.746;2023-05-03T01:58:31;102805.97;;;17.76;50.54
15314;BME280;7757;52.626;4.746;2023-05-03T02:01:21;102808.13;;;17.80;50.19
15314;BME280;7757;52.626;4.746;2023-05-03T02:04:16;102800.00;;;17.80;50.50
15314;BME280;7757;52.626;4.746;2023-05-03T02:07:01;102801.41;;;17.76;50.64
15314;BME280;7757;52.626;4.746;2023-05-03T02:09:47;102788.72;;;17.77;50.43
15314;BME280;7757;52.626;4.746;2023-05-03T02:12:32;102787.19;;;17.74;50.57
15314;BME280;7757;52.626;4.746;2023-05-03T02:15:17;102787.19;;;17.74;50.28
15314;BME280;7757;52.626;4.746;2023-05-03T02:18:04;102784.50;;;17.74;50.24
15314;BME280;7757;52.626;4.746;2023-05-03T02:20:51;102787.41;;;17.73;50.49
15314;BME280;7757;52.626;4.746;2023-05-03T02:23:36;102797.09;;;17.67;50.41
15314;BME280;7757;52.626;4.746;2023-05-03T02:26:21;102798.22;;;17.73;50.18
15314;BME280;7757;52.626;4.746;2023-05-03T02:29:07;102797.59;;;17.71;50.31
15314;BME280;7757;52.626;4.746;2023-05-03T02:31:52;102794.19;;;17.69;50.75
15314;BME280;7757;52.626;4.746;2023-05-03T02:34:39;102801.88;;;17.65;50.63
15314;BME280;7757;52.626;4.746;2023-05-03T02:37:24;102820.44;;;17.68;50.27
15314;BME280;7757;52.626;4.746;2023-05-03T02:40:10;102819.28;;;17.63;49.94
15314;BME280;7757;52.626;4.746;2023-05-03T02:43:01;102825.38;;;17.65;50.74
15314;BME280;7757;52.626;4.746;2023-05-03T02:45:46;102827.03;;;17.66;50.28
15314;BME280;7757;52.626;4.746;2023-05-03T02:48:32;102832.81;;;17.63;50.14
15314;BME280;7757;52.626;4.746;2023-05-03T02:51:18;102838.91;;;17.65;50.59
15314;BME280;7757;52.626;4.746;2023-05-03T02:54:04;102836.38;;;17.63;50.28
15314;BME280;7757;52.626;4.746;2023-05-03T02:56:50;102839.06;;;17.63;50.24
15314;BME280;7757;52.626;4.746;2023-05-03T02:59:35;102844.31;;;17.65;50.39
15314;BME280;7757;52.626;4.746;2023-05-03T03:02:24;102844.84;;;17.60;50.96
15314;BME280;7757;52.626;4.746;2023-05-03T03:05:09;102851.13;;;17.61;50.55
15314;BME280;7757;52.626;4.746;2023-05-03T03:08:01;102853.81;;;17.61;50.56
15314;BME280;7757;52.626;4.746;2023-05-03T03:10:46;102847.28;;;17.55;50.55
15314;BME280;7757;52.626;4.746;2023-05-03T03:13:31;102860.25;;;17.60;50.22
15314;BME280;7757;52.626;4.746;2023-05-03T03:16:17;102851.47;;;17.58;50.44
15314;BME280;7757;52.626;4.746;2023-05-03T03:19:02;102854.38;;;17.56;50.45
15314;BME280;7757;52.626;4.746;2023-05-03T03:21:48;102858.09;;;17.55;50.52
15314;BME280;7757;52.626;4.746;2023-05-03T03:24:34;102848.13;;;17.56;50.62
15314;BME280;7757;52.626;4.746;2023-05-03T03:27:20;102855.19;;;17.57;50.99
15314;BME280;7757;52.626;4.746;2023-05-03T03:30:08;102842.72;;;17.56;50.01
15314;BME280;7757;52.626;4.746;2023-05-03T03:32:54;102841.03;;;17.55;50.71
15314;BME280;7757;52.626;4.746;2023-05-03T03:35:50;102836.97;;;17.51;50.16
15314;BME280;7757;52.626;4.746;2023-05-03T03:38:35;102843.91;;;17.53;50.90
15314;BME280;7757;52.626;4.746;2023-05-03T03:41:22;102844.06;;;17.52;50.39
15314;BME280;7757;52.626;4.746;2023-05-03T03:44:07;102851.53;;;17.50;50.58
15314;BME280;7757;52.626;4.746;2023-05-03T03:46:58;102845.47;;;17.48;50.61
15314;BME280;7757;52.626;4.746;2023-05-03T03:49:43;102854.03;;;17.51;50.95
15314;BME280;7757;52.626;4.746;2023-05-03T03:52:29;102843.41;;;17.50;50.76
15314;BME280;7757;52.626;4.746;2023-05-03T03:55:17;102841.56;;;17.50;50.87
15314;BME280;7757;52.626;4.746;2023-05-03T03:58:04;102848.81;;;17.50;50.28
15314;BME280;7757;52.626;4.746;2023-05-03T04:00:51;102855.06;;;17.50;50.61
15314;BME280;7757;52.626;4.746;2023-05-03T04:03:36;102868.97;;;17.47;50.71
15314;BME280;7757;52.626;4.746;2023-05-03T04:06:22;102870.63;;;17.48;50.74
15314;BME280;7757;52.626;4.746;2023-05-03T04:09:07;102865.59;;;17.45;50.33
15314;BME280;7757;52.626;4.746;2023-05-03T04:11:59;102859.00;;;17.48;51.08
15314;BME280;7757;52.626;4.746;2023-05-03T04:14:47;102861.69;;;17.48;50.49
15314;BME280;7757;52.626;4.746;2023-05-03T04:17:35;102861.69;;;17.48;50.40
15314;BME280;7757;52.626;4.746;2023-05-03T04:20:22;102866.91;;;17.49;50.99
15314;BME280;7757;52.626;4.746;2023-05-03T04:23:07;102858.16;;;17.47;50.25
15314;BME280;7757;52.626;4.746;2023-05-03T04:25:52;102858.78;;;17.49;50.27
15314;BME280;7757;52.626;4.746;2023-05-03T04:28:40;102852.19;;;17.52;50.70
15314;BME280;7757;52.626;4.746;2023-05-03T04:31:30;102858.44;;;17.52;50.55
15314;BME280;7757;52.626;4.746;2023-05-03T04:34:15;102855.72;;;17.52;50.44
15314;BME280;7757;52.626;4.746;2023-05-03T04:37:02;102855.41;;;17.55;50.08
15314;BME280;7757;52.626;4.746;2023-05-03T04:39:48;102860.13;;;17.53;50.19
15314;BME280;7757;52.626;4.746;2023-05-03T04:42:34;102858.09;;;17.55;49.85
15314;BME280;7757;52.626;4.746;2023-05-03T04:45:19;102854.03;;;17.51;50.55
15314;BME280;7757;52.626;4.746;2023-05-03T04:48:13;102859.28;;;17.53;50.18
15314;BME280;7757;52.626;4.746;2023-05-03T04:51:00;102859.00;;;17.48;50.25
15314;BME280;7757;52.626;4.746;2023-05-03T04:53:46;102855.25;;;17.49;50.39
15314;BME280;7757;52.626;4.746;2023-05-03T04:56:31;102870.09;;;17.53;49.99
15314;BME280;7757;52.626;4.746;2023-05-03T04:59:18;102864.00;;;17.59;50.29
15314;BME280;7757;52.626;4.746;2023-05-03T05:02:06;102867.56;;;17.59;50.30
15314;BME280;7757;52.626;4.746;2023-05-03T05:04:53;102870.41;;;17.58;50.25
15314;BME280;7757;52.626;4.746;2023-05-03T05:07:41;102865.84;;;17.58;50.62
15314;BME280;7757;52.626;4.746;2023-05-03T05:10:27;102863.31;;;17.57;50.29
15314;BME280;7757;52.626;4.746;2023-05-03T05:13:16;102863.16;;;17.58;49.82
15314;BME280;7757;52.626;4.746;2023-05-03T05:16:01;102879.50;;;17.65;50.05
15314;BME280;7757;52.626;4.746;2023-05-03T05:18:50;102876.13;;;17.63;49.69
15314;BME280;7757;52.626;4.746;2023-05-03T05:21:39;102873.97;;;17.58;50.04
15314;BME280;7757;52.626;4.746;2023-05-03T05:24:25;102880.63;;;17.70;49.52
15314;BME280;7757;52.626;4.746;2023-05-03T05:27:10;102889.41;;;17.72;49.80
15314;BME280;7757;52.626;4.746;2023-05-03T05:29:56;102879.31;;;17.66;49.94
15314;BME280;7757;52.626;4.746;2023-05-03T05:32:41;102897.25;;;17.67;49.47
15314;BME280;7757;52.626;4.746;2023-05-03T05:35:27;102880.00;;;17.68;49.78
15314;BME280;7757;52.626;4.746;2023-05-03T05:38:14;102879.34;;;17.81;49.89
15314;BME280;7757;52.626;4.746;2023-05-03T05:41:00;102882.81;;;17.90;49.51
15314;BME280;7757;52.626;4.746;2023-05-03T05:43:45;102880.66;;;17.85;49.47
15314;BME280;7757;52.626;4.746;2023-05-03T05:46:30;102871.34;;;17.88;49.09
15314;BME280;7757;52.626;4.746;2023-05-03T05:49:16;102872.47;;;18.08;48.55
15314;BME280;7757;52.626;4.746;2023-05-03T05:52:01;102866.78;;;18.03;49.02
15314;BME280;7757;52.626;4.746;2023-05-03T05:54:48;102868.00;;;18.15;48.59
15314;BME280;7757;52.626;4.746;2023-05-03T05:57:36;102875.56;;;18.34;48.28
15314;BME280;7757;52.626;4.746;2023-05-03T06:00:22;102881.19;;;18.32;48.16
15314;BME280;7757;52.626;4.746;2023-05-03T06:03:07;102882.66;;;18.35;48.24
15314;BME280;7757;52.626;4.746;2023-05-03T06:05:55;102881.53;;;18.44;47.74
15314;BME280;7757;52.626;4.746;2023-05-03T06:08:40;102885.50;;;18.56;47.58
15314;BME280;7757;52.626;4.746;2023-05-03T06:11:27;102890.59;;;18.80;47.21
15314;BME280;7757;52.626;4.746;2023-05-03T06:14:12;102898.56;;;18.67;47.25
15314;BME280;7757;52.626;4.746;2023-05-03T06:16:58;102890.28;;;18.90;46.93
15314;BME280;7757;52.626;4.746;2023-05-03T06:19:45;102891.50;;;18.87;47.34
15314;BME280;7757;52.626;4.746;2023-05-03T06:22:32;102888.31;;;19.20;46.08
15314;BME280;7757;52.626;4.746;2023-05-03T06:25:21;102889.91;;;19.71;44.54
15314;BME280;7757;52.626;4.746;2023-05-03T06:28:07;102896.34;;;19.70;45.01
15314;BME280;7757;52.626;4.746;2023-05-03T06:30:53;102891.44;;;19.80;45.19
15314;BME280;7757;52.626;4.746;2023-05-03T06:33:38;102889.13;;;19.77;44.70
15314;BME280;7757;52.626;4.746;2023-05-03T06:36:24;102887.59;;;19.68;44.82
15314;BME280;7757;52.626;4.746;2023-05-03T06:39:11;102887.78;;;19.94;43.90
15314;BME280;7757;52.626;4.746;2023-05-03T06:41:56;102883.94;;;20.17;44.51
15314;BME280;7757;52.626;4.746;2023-05-03T06:44:43;102877.53;;;20.24;44.62
15314;BME280;7757;52.626;4.746;2023-05-03T06:47:28;102881.59;;;20.35;43.66
15314;BME280;7757;52.626;4.746;2023-05-03T06:50:14;102872.91;;;20.52;43.82
15314;BME280;7757;52.626;4.746;2023-05-03T06:52:59;102868.13;;;20.61;43.44
15314;BME280;7757;52.626;4.746;2023-05-03T06:55:51;102864.81;;;20.66;43.78
15314;BME280;7757;52.626;4.746;2023-05-03T06:58:36;102869.00;;;20.68;43.45
15314;BME280;7757;52.626;4.746;2023-05-03T07:01:29;102872.38;;;20.77;42.63
15314;BME280;7757;52.626;4.746;2023-05-03T07:04:15;102873.81;;;20.73;41.56
15314;BME280;7757;52.626;4.746;2023-05-03T07:07:02;102873.00;;;20.72;41.83
15314;BME280;7757;52.626;4.746;2023-05-03T07:09:49;102856.88;;;20.71;41.98
15314;BME280;7757;52.626;4.746;2023-05-03T07:12:34;102863.34;;;20.70;41.35
15314;BME280;7757;52.626;4.746;2023-05-03T07:15:19;102866.28;;;20.68;41.30
15314;BME280;7757;52.626;4.746;2023-05-03T07:18:06;102854.97;;;20.65;42.53
15314;BME280;7757;52.626;4.746;2023-05-03T07:20:52;102862.22;;;20.44;41.96
15314;BME280;7757;52.626;4.746;2023-05-03T07:23:37;102867.34;;;20.26;41.45
15314;BME280;7757;52.626;4.746;2023-05-03T07:26:23;102868.44;;;20.11;42.20
15314;BME280;7757;52.626;4.746;2023-05-03T07:29:12;102869.91;;;20.07;42.79
15314;BME280;7757;52.626;4.746;2023-05-03T07:31:58;102857.63;;;19.83;42.66
15314;BME280;7757;52.626;4.746;2023-05-03T07:34:47;102853.09;;;19.96;43.33
15314;BME280;7757;52.626;4.746;2023-05-03T07:37:33;102852.47;;;19.67;42.27
15314;BME280;7757;52.626;4.746;2023-05-03T07:40:18;102854.13;;;19.89;43.02
15314;BME280;7757;52.626;4.746;2023-05-03T07:43:04;102857.97;;;19.73;43.25
15314;BME280;7757;52.626;4.746;2023-05-03T07:45:49;102851.50;;;19.32;42.09
15314;BME280;7757;52.626;4.746;2023-05-03T07:48:37;102860.53;;;19.54;43.07
15314;BME280;7757;52.626;4.746;2023-05-03T07:51:36;102853.13;;;19.69;43.02
15314;BME280;7757;52.626;4.746;2023-05-03T07:54:25;102854.75;;;19.21;43.11
15314;BME280;7757;52.626;4.746;2023-05-03T07:57:15;102873.81;;;19.27;43.69
15314;BME280;7757;52.626;4.746;2023-05-03T08:00:00;102867.59;;;19.33;43.55
15314;BME280;7757;52.626;4.746;2023-05-03T08:02:53;102873.25;;;19.53;44.30
15314;BME280;7757;52.626;4.746;2023-05-03T08:05:38;102880.94;;;19.49;44.06
15314;BME280;7757;52.626;4.746;2023-05-03T08:08:26;102887.13;;;19.43;45.06
15314;BME280;7757;52.626;4.746;2023-05-03T08:11:15;102879.25;;;19.27;44.86
15314;BME280;7757;52.626;4.746;2023-05-03T08:14:06;102879.94;;;19.36;45.03
15314;BME280;7757;52.626;4.746;2023-05-03T08:16:52;102880.88;;;19.43;45.06
15314;BME280;7757;52.626;4.746;2023-05-03T08:19:54;102880.09;;;19.13;44.66
15314;BME280;7757;52.626;4.746;2023-05-03T08:22:39;102892.22;;;19.32;45.27
15314;BME280;7757;52.626;4.746;2023-05-03T08:25:32;102890.09;;;19.27;45.79
15314;BME280;7757;52.626;4.746;2023-05-03T08:28:19;102883.56;;;19.43;44.69
15314;BME280;7757;52.626;4.746;2023-05-03T08:31:05;102882.19;;;19.32;45.03
15314;BME280;7757;52.626;4.746;2023-05-03T08:33:50;102885.75;;;19.33;44.51
15314;BME280;7757;52.626;4.746;2023-05-03T08:36:38;102870.31;;;19.12;45.34
15314;BME280;7757;52.626;4.746;2023-05-03T08:39:24;102886.66;;;19.19;45.28
15314;BME280;7757;52.626;4.746;2023-05-03T08:42:18;102887.34;;;19.42;44.52
15314;BME280;7757;52.626;4.746;2023-05-03T08:45:05;102886.56;;;19.48;43.59
15314;BME280;7757;52.626;4.746;2023-05-03T08:47:52;102873.09;;;19.40;43.96
15314;BME280;7757;52.626;4.746;2023-05-03T08:50:38;102865.03;;;19.46;44.18
15314;BME280;7757;52.626;4.746;2023-05-03T08:53:28;102851.97;;;19.84;44.16
15314;BME280;7757;52.626;4.746;2023-05-03T08:56:17;102859.38;;;19.97;42.76
15314;BME280;7757;52.626;4.746;2023-05-03T08:59:08;102866.56;;;19.77;42.75
15314;BME280;7757;52.626;4.746;2023-05-03T09:02:00;102867.28;;;19.64;42.36
15314;BME280;7757;52.626;4.746;2023-05-03T09:04:49;102857.13;;;19.73;43.55
15314;BME280;7757;52.626;4.746;2023-05-03T09:07:34;102864.53;;;19.85;43.21
15314;BME280;7757;52.626;4.746;2023-05-03T09:10:22;102873.78;;;19.70;43.02
15314;BME280;7757;52.626;4.746;2023-05-03T09:13:08;102875.34;;;19.79;42.97
15314;BME280;7757;52.626;4.746;2023-05-03T09:15:56;102879.13;;;19.84;44.23
15314;BME280;7757;52.626;4.746;2023-05-03T09:18:55;102870.59;;;19.87;42.45
15314;BME280;7757;52.626;4.746;2023-05-03T09:21:42;102879.69;;;20.01;41.76
15314;BME280;7757;52.626;4.746;2023-05-03T09:24:27;102878.84;;;20.00;42.20
15314;BME280;7757;52.626;4.746;2023-05-03T09:27:17;102868.66;;;20.09;41.92
15314;BME280;7757;52.626;4.746;2023-05-03T09:30:17;102871.56;;;20.08;42.14
15314;BME280;7757;52.626;4.746;2023-05-03T09:33:04;102869.56;;;20.16;42.27
15314;BME280;7757;52.626;4.746;2023-05-03T09:35:55;102882.88;;;20.11;42.44
15314;BME280;7757;52.626;4.746;2023-05-03T09:38:40;102872.34;;;19.95;42.23
15314;BME280;7757;52.626;4.746;2023-05-03T09:41:26;102870.16;;;19.84;41.78
15314;BME280;7757;52.626;4.746;2023-05-03T09:44:18;102869.22;;;19.70;42.62
15314;BME280;7757;52.626;4.746;2023-05-03T09:47:05;102874.25;;;19.73;42.88
15314;BME280;7757;52.626;4.746;2023-05-03T09:49:51;102884.16;;;19.81;42.28
15314;BME280;7757;52.626;4.746;2023-05-03T09:52:37;102877.56;;;19.96;43.21
15314;BME280;7757;52.626;4.746;2023-05-03T09:55:26;102881.91;;;19.91;43.54
15314;BME280;7757;52.626;4.746;2023-05-03T09:58:21;102885.16;;;19.80;43.75
15314;BME280;7757;52.626;4.746;2023-05-03T10:01:15;102881.28;;;19.89;44.10
15314;BME280;7757;52.626;4.746;2023-05-03T10:04:04;102882.13;;;19.89;44.08
15314;BME280;7757;52.626;4.746;2023-05-03T10:06:57;102880.97;;;19.77;43.26
15314;BME280;7757;52.626;4.746;2023-05-03T10:09:47;102879.09;;;19.78;42.77
15314;BME280;7757;52.626;4.746;2023-05-03T10:12:32;102870.59;;;19.87;43.75
15314;BME280;7757;52.626;4.746;2023-05-03T10:15:25;102876.81;;;20.09;43.79
15314;BME280;7757;52.626;4.746;2023-05-03T10:18:19;102879.28;;;20.04;43.51
15314;BME280;7757;52.626;4.746;2023-05-03T10:21:10;102878.63;;;19.95;43.38
15314;BME280;7757;52.626;4.746;2023-05-03T10:24:09;102870.16;;;19.84;43.06
15314;BME280;7757;52.626;4.746;2023-05-03T10:26:58;102878.63;;;19.95;43.35
15314;BME280;7757;52.626;4.746;2023-05-03T10:29:47;102848.44;;;19.84;43.14
15314;BME280;7757;52.626;4.746;2023-05-03T10:32:36;102857.16;;;20.07;43.70
15314;BME280;7757;52.626;4.746;2023-05-03T10:35:26;102861.91;;;19.98;44.08
15314;BME280;7757;52.626;4.746;2023-05-03T10:38:20;102860.78;;;19.86;43.85
15314;BME280;7757;52.626;4.746;2023-05-03T10:41:07;102850.50;;;19.82;43.65
15314;BME280;7757;52.626;4.746;2023-05-03T10:43:52;102844.72;;;19.64;43.57
15314;BME280;7757;52.626;4.746;2023-05-03T10:46:38;102851.00;;;19.64;42.55
15314;BME280;7757;52.626;4.746;2023-05-03T10:49:23;102843.28;;;19.68;42.35
15314;BME280;7757;52.626;4.746;2023-05-03T10:55:28;102846.47;;;19.71;43.38
15314;BME280;7757;52.626;4.746;2023-05-03T10:58:15;102843.81;;;19.78;44.11
15314;BME280;7757;52.626;4.746;2023-05-03T11:01:01;102841.75;;;19.59;42.86
15314;BME280;7757;52.626;4.746;2023-05-03T11:03:53;102851.94;;;19.78;43.59
15314;BME280;7757;52.626;4.746;2023-05-03T11:06:39;102841.09;;;19.78;43.91
15314;BME280;7757;52.626;4.746;2023-05-03T11:09:30;102831.25;;;19.77;43.74
15314;BME280;7757;52.626;4.746;2023-05-03T11:12:15;102825.03;;;19.55;43.60
15314;BME280;7757;52.626;4.746;2023-05-03T11:15:02;102824.19;;;19.33;43.17
15314;BME280;7757;52.626;4.746;2023-05-03T11:17:48;102836.34;;;19.59;43.09
15314;BME280;7757;52.626;4.746;2023-05-03T11:20:34;102831.53;;;19.61;43.09
15314;BME280;7757;52.626;4.746;2023-05-03T11:23:24;102825.41;;;19.52;43.74
15314;BME280;7757;52.626;4.746;2023-05-03T11:26:10;102824.72;;;19.43;43.72
15314;BME280;7757;52.626;4.746;2023-05-03T11:28:55;102813.53;;;19.53;43.79
15314;BME280;7757;52.626;4.746;2023-05-03T11:31:42;102815.94;;;19.69;44.04
15314;BME280;7757;52.626;4.746;2023-05-03T11:34:27;102813.31;;;19.55;43.31
15314;BME280;7757;52.626;4.746;2023-05-03T11:37:14;102818.88;;;19.68;44.15
15314;BME280;7757;52.626;4.746;2023-05-03T11:40:00;102811.06;;;19.37;43.91
15314;BME280;7757;52.626;4.746;2023-05-03T11:42:51;102814.25;;;19.40;43.33
15314;BME280;7757;52.626;4.746;2023-05-03T11:45:39;102808.34;;;19.37;43.90
15314;BME280;7757;52.626;4.746;2023-05-03T11:48:28;102807.16;;;19.39;43.88
15314;BME280;7757;52.626;4.746;2023-05-03T11:51:20;102810.88;;;19.38;43.77
15314;BME280;7757;52.626;4.746;2023-05-03T11:54:06;102810.50;;;19.20;43.93
15314;BME280;7757;52.626;4.746;2023-05-03T11:56:54;102807.47;;;19.30;43.40
15314;BME280;7757;52.626;4.746;2023-05-03T11:59:42;102797.44;;;19.30;43.94
15314;BME280;7757;52.626;4.746;2023-05-03T12:02:28;102793.22;;;19.28;45.42
15314;BME280;7757;52.626;4.746;2023-05-03T12:05:15;102802.66;;;19.32;44.02
15314;BME280;7757;52.626;4.746;2023-05-03T12:08:01;102786.16;;;19.48;44.72
15314;BME280;7757;52.626;4.746;2023-05-03T12:10:47;102784.66;;;19.45;44.02
15314;BME280;7757;52.626;4.746;2023-05-03T12:13:33;102782.72;;;19.18;45.00
15314;BME280;7757;52.626;4.746;2023-05-03T12:16:19;102777.38;;;19.25;44.57
15314;BME280;7757;52.626;4.746;2023-05-03T12:19:05;102778.25;;;19.32;45.37
15314;BME280;7757;52.626;4.746;2023-05-03T12:21:52;102775.13;;;19.35;44.03
15314;BME280;7757;52.626;4.746;2023-05-03T12:24:38;102768.63;;;19.29;44.84
15314;BME280;7757;52.626;4.746;2023-05-03T12:27:24;102775.13;;;19.35;44.20
15314;BME280;7757;52.626;4.746;2023-05-03T12:30:10;102771.28;;;19.23;44.86
15314;BME280;7757;52.626;4.746;2023-05-03T12:32:55;102765.78;;;19.16;44.83
15314;BME280;7757;52.626;4.746;2023-05-03T12:35:40;102763.06;;;19.16;44.42
15314;BME280;7757;52.626;4.746;2023-05-03T12:38:27;102762.28;;;19.22;44.45
15314;BME280;7757;52.626;4.746;2023-05-03T12:41:13;102761.09;;;19.25;44.57
15314;BME280;7757;52.626;4.746;2023-05-03T12:43:58;102766.75;;;19.30;45.37
15314;BME280;7757;52.626;4.746;2023-05-03T12:46:45;102753.81;;;19.32;45.38
15314;BME280;7757;52.626;4.746;2023-05-03T12:49:30;102746.78;;;19.10;44.57
15314;BME280;7757;52.626;4.746;2023-05-03T12:52:16;102735.47;;;19.06;45.40
15314;BME280;7757;52.626;4.746;2023-05-03T12:55:03;102745.53;;;19.12;44.64
15314;BME280;7757;52.626;4.746;2023-05-03T12:57:49;102749.41;;;19.03;44.95
15314;BME280;7757;52.626;4.746;2023-05-03T13:00:34;102748.97;;;19.00;44.41
15314;BME280;7757;52.626;4.746;2023-05-03T13:03:20;102746.47;;;18.98;44.95
15314;BME280;7757;52.626;4.746;2023-05-03T13:06:05;102735.94;;;19.16;45.76
15314;BME280;7757;52.626;4.746;2023-05-03T13:08:51;102733.31;;;19.02;45.63
15314;BME280;7757;52.626;4.746;2023-05-03T13:11:38;102725.34;;;18.93;44.58
15314;BME280;7757;52.626;4.746;2023-05-03T13:14:24;102730.44;;;19.03;45.18
15314;BME280;7757;52.626;4.746;2023-05-03T13:17:09;102729.81;;;18.80;44.77
15314;BME280;7757;52.626;4.746;2023-05-03T13:19:54;102735.63;;;18.98;45.83
15314;BME280;7757;52.626;4.746;2023-05-03T13:22:40;102703.88;;;18.99;44.96
15314;BME280;7757;52.626;4.746;2023-05-03T13:25:25;102716.72;;;19.11;45.31
15314;BME280;7757;52.626;4.746;2023-05-03T13:28:12;102696.66;;;19.06;44.57
15314;BME280;7757;52.626;4.746;2023-05-03T13:31:03;102708.34;;;19.06;45.55
15314;BME280;7757;52.626;4.746;2023-05-03T13:33:48;102695.09;;;19.18;44.54
15314;BME280;7757;52.626;4.746;2023-05-03T13:36:36;102698.59;;;19.12;44.89
15314;BME280;7757;52.626;4.746;2023-05-03T13:39:22;102695.03;;;19.11;45.11
15314;BME280;7757;52.626;4.746;2023-05-03T13:42:07;102691.19;;;18.78;43.96
15314;BME280;7757;52.626;4.746;2023-05-03T13:44:54;102680.13;;;19.01;45.64
15314;BME280;7757;52.626;4.746;2023-05-03T13:47:43;102693.06;;;19.26;46.03
15314;BME280;7757;52.626;4.746;2023-05-03T13:50:28;102678.16;;;18.88;44.28
15314;BME280;7757;52.626;4.746;2023-05-03T13:53:14;102679.09;;;19.02;44.97
15314;BME280;7757;52.626;4.746;2023-05-03T13:56:00;102672.00;;;19.01;45.72
15314;BME280;7757;52.626;4.746;2023-05-03T13:58:45;102668.84;;;18.97;45.66
15314;BME280;7757;52.626;4.746;2023-05-03T14:01:32;102679.84;;;19.17;45.12
15314;BME280;7757;52.626;4.746;2023-05-03T14:04:18;102660.47;;;18.92;44.84
15314;BME280;7757;52.626;4.746;2023-05-03T14:07:07;102647.09;;;18.63;44.93
15314;BME280;7757;52.626;4.746;2023-05-03T14:09:52;102644.84;;;18.73;45.35
15314;BME280;7757;52.626;4.746;2023-05-03T14:12:38;102649.31;;;18.80;45.52
15314;BME280;7757;52.626;4.746;2023-05-03T14:15:23;102650.00;;;18.89;45.99
15314;BME280;7757;52.626;4.746;2023-05-03T14:18:10;102655.78;;;19.07;45.28
15314;BME280;7757;52.626;4.746;2023-05-03T14:20:55;102656.78;;;18.78;45.45
15314;BME280;7757;52.626;4.746;2023-05-03T14:23:42;102646.25;;;18.90;46.02
15314;BME280;7757;52.626;4.746;2023-05-03T14:26:27;102641.91;;;18.68;45.01
15314;BME280;7757;52.626;4.746;2023-05-03T14:29:13;102635.38;;;18.83;45.59
15314;BME280;7757;52.626;4.746;2023-05-03T14:31:58;102631.94;;;18.75;45.28
15314;BME280;7757;52.626;4.746;2023-05-03T14:34:45;102628.22;;;19.04;45.61
15314;BME280;7757;52.626;4.746;2023-05-03T14:37:31;102622.13;;;19.02;45.55
15314;BME280;7757;52.626;4.746;2023-05-03T14:40:17;102627.81;;;18.79;45.23
15314;BME280;7757;52.626;4.746;2023-05-03T14:43:03;102624.00;;;18.73;45.54
15314;BME280;7757;52.626;4.746;2023-05-03T14:45:49;102613.16;;;18.73;45.04
15314;BME280;7757;52.626;4.746;2023-05-03T14:48:34;102614.34;;;18.64;45.27
15314;BME280;7757;52.626;4.746;2023-05-03T14:51:24;102612.84;;;18.83;46.21